Time;durP1;ratioP1;P1;durP2;ratioP2;P2;SDS_P1;SDS_P2;PMS_P1;PMS_P2;Temp;Humidity;BMP_temperature;BMP_pressure;BME280_temperature;BME280_humidity;BME280_pressure;Samples;Min_cycle;Max_cycle;Signal;HPM_P1;HPM_P2
2022/03/13 16:49:32;;;;;;;12.45;9.20;;;14.60;73.40;;;;;;5139610;27;20108;-72
2022/03/13 16:51:58;;;;;;;13.30;9.88;;;14.70;77.40;;;;;;5131553;28;20134;-72
2022/03/13 16:54:24;;;;;;;15.02;9.40;;;14.60;77.50;;;;;;5108060;28;20097;-72
2022/03/13 16:56:54;;;;;;;12.25;9.13;;;14.40;78.20;;;;;;5117884;28;20052;-72
2022/03/13 16:59:22;;;;;;;11.85;10.27;;;14.30;78.60;;;;;;5093073;28;20122;-72
2022/03/13 17:01:48;;;;;;;12.75;10.20;;;14.10;79.40;;;;;;5118661;28;20047;-72
2022/03/13 17:04:15;;;;;;;10.90;9.60;;;13.90;79.80;;;;;;5130831;28;20092;-72
2022/03/13 17:06:42;;;;;;;11.57;9.15;;;13.80;80.20;;;;;;5096699;28;20039;-72
2022/03/13 17:09:10;;;;;;;13.93;10.18;;;13.60;80.60;;;;;;5131721;28;20054;-72
2022/03/13 17:11:36;;;;;;;14.65;10.00;;;13.50;80.70;;;;;;5111760;28;20078;-73
2022/03/13 17:14:02;;;;;;;15.00;9.65;;;13.30;81.00;;;;;;5111183;28;20036;-73
2022/03/13 17:16:28;;;;;;;12.23;9.50;;;13.20;81.30;;;;;;5117505;28;20044;-72
2022/03/13 17:18:54;;;;;;;12.52;10.45;;;13.10;81.70;;;;;;5130790;28;20119;-72
2022/03/13 17:21:20;;;;;;;14.70;10.57;;;12.90;82.00;;;;;;5112952;28;20628;-72
2022/03/13 17:23:46;;;;;;;12.10;9.93;;;12.80;82.20;;;;;;5130538;28;20048;-72
2022/03/13 17:26:12;;;;;;;14.82;10.65;;;12.70;82.30;;;;;;5095849;28;20523;-73
2022/03/13 17:28:38;;;;;;;11.40;9.63;;;12.50;82.60;;;;;;5129888;28;20058;-73
2022/03/13 17:31:04;;;;;;;13.85;10.00;;;12.40;83.20;;;;;;5111953;28;20047;-73
2022/03/13 17:33:30;;;;;;;13.32;10.90;;;12.30;83.70;;;;;;5112151;28;20126;-73
2022/03/13 17:35:56;;;;;;;14.70;10.68;;;12.10;84.00;;;;;;5112935;28;20093;-73
2022/03/13 17:38:24;;;;;;;13.35;10.55;;;12.00;84.40;;;;;;5111481;28;20047;-73
2022/03/13 17:40:51;;;;;;;17.38;10.55;;;11.80;84.80;;;;;;5131180;28;20039;-73
2022/03/13 17:43:17;;;;;;;12.85;10.30;;;11.70;85.30;;;;;;5130740;28;20051;-73
2022/03/13 17:45:43;;;;;;;12.95;10.55;;;11.50;86.00;;;;;;5130251;28;20508;-73
2022/03/13 17:48:09;;;;;;;10.88;9.73;;;11.40;86.10;;;;;;5129989;28;20055;-73
2022/03/13 17:50:35;;;;;;;29.95;19.70;;;11.30;86.20;;;;;;5130201;28;20050;-73
2022/03/13 17:53:03;;;;;;;13.23;10.82;;;11.20;86.70;;;;;;5111315;28;20051;-73
2022/03/13 17:55:29;;;;;;;15.05;11.35;;;11.10;86.90;;;;;;5130206;28;20063;-74
2022/03/13 17:57:55;;;;;;;16.65;13.82;;;11.00;87.80;;;;;;5130718;28;20051;-74
2022/03/13 18:00:21;;;;;;;19.48;16.85;;;10.80;87.90;;;;;;5118948;28;20100;-74
2022/03/13 18:02:47;;;;;;;26.60;15.93;;;10.60;88.70;;;;;;5081905;28;20120;-74
2022/03/13 18:05:13;;;;;;;16.58;13.73;;;10.50;89.10;;;;;;5116486;28;20047;-74
2022/03/13 18:07:39;;;;;;;19.90;16.80;;;10.40;89.40;;;;;;5097632;28;20048;-74
2022/03/13 18:10:07;;;;;;;39.80;30.52;;;10.30;89.90;;;;;;5116508;28;20043;-73
2022/03/13 18:12:33;;;;;;;16.77;12.32;;;10.30;90.20;;;;;;5096401;28;20036;-73
2022/03/13 18:14:59;;;;;;;22.27;17.00;;;10.30;90.10;;;;;;5106694;28;20405;-73
2022/03/13 18:17:25;;;;;;;19.92;14.23;;;10.20;90.00;;;;;;5116635;28;20078;-75
2022/03/13 18:19:51;;;;;;;20.52;14.48;;;10.30;89.80;;;;;;5115099;28;20039;-74
2022/03/13 18:22:17;;;;;;;26.92;17.92;;;10.30;89.60;;;;;;5116466;28;20433;-74
2022/03/13 18:24:43;;;;;;;30.50;21.63;;;10.30;89.50;;;;;;5096296;28;20100;-73
2022/03/13 18:27:09;;;;;;;27.40;15.25;;;10.30;89.10;;;;;;5102642;28;20032;-74
2022/03/13 18:29:36;;;;;;;22.15;17.88;;;10.30;88.70;;;;;;5080229;28;20047;-74
2022/03/13 18:32:02;;;;;;;25.33;18.02;;;10.30;88.50;;;;;;5096875;28;20035;-73
2022/03/13 18:34:27;;;;;;;25.50;20.90;;;10.30;88.40;;;;;;5114820;28;20054;-73
2022/03/13 18:36:53;;;;;;;17.25;13.05;;;10.30;88.50;;;;;;5097889;28;20039;-73
2022/03/13 18:39:19;;;;;;;26.48;18.35;;;10.20;88.40;;;;;;5098165;28;20043;-73
2022/03/13 18:41:46;;;;;;;25.17;18.90;;;10.10;88.60;;;;;;5097214;28;20039;-73
2022/03/13 18:44:12;;;;;;;15.95;11.60;;;10.00;89.00;;;;;;5096234;28;20089;-73
2022/03/13 18:46:38;;;;;;;19.15;13.82;;;9.90;88.80;;;;;;5091110;28;20055;-73
2022/03/13 18:49:04;;;;;;;19.05;12.45;;;9.80;89.10;;;;;;5073101;28;20064;-73
2022/03/13 18:51:34;;;;;;;24.20;17.58;;;9.80;89.10;;;;;;5075321;28;20051;-73
2022/03/13 18:54:04;;;;;;;21.13;15.73;;;9.60;88.70;;;;;;5074426;28;20484;-73
2022/03/13 18:56:31;;;;;;;18.10;13.77;;;9.60;88.30;;;;;;5056398;28;20059;-74
2022/03/13 18:58:58;;;;;;;21.73;13.48;;;9.60;88.30;;;;;;5074018;28;20048;-73
2022/03/13 19:01:23;;;;;;;20.13;14.52;;;9.60;88.00;;;;;;5091964;28;20074;-74
2022/03/13 19:03:49;;;;;;;25.08;15.15;;;9.60;87.90;;;;;;5089295;28;20079;-74
2022/03/13 19:06:16;;;;;;;23.50;17.65;;;9.60;87.70;;;;;;5074059;28;20570;-74
2022/03/13 19:08:43;;;;;;;20.27;13.27;;;9.60;87.90;;;;;;5073916;28;20048;-74
2022/03/13 19:11:11;;;;;;;16.77;12.70;;;9.60;87.10;;;;;;5072037;28;20052;-74
2022/03/13 19:13:41;;;;;;;25.38;13.70;;;9.60;86.60;;;;;;5073741;28;20044;-74
2022/03/13 19:16:07;;;;;;;15.93;11.50;;;9.60;86.40;;;;;;5082300;28;20390;-74
2022/03/13 19:18:36;;;;;;;18.05;11.85;;;9.50;86.70;;;;;;5093364;28;20090;-74
2022/03/13 19:21:03;;;;;;;20.35;14.30;;;9.50;86.50;;;;;;5093228;28;20066;-74
2022/03/13 19:23:32;;;;;;;17.58;13.68;;;9.40;86.50;;;;;;5085111;28;20082;-74
2022/03/13 19:25:58;;;;;;;18.30;13.25;;;9.40;86.80;;;;;;5084102;28;20048;-74
2022/03/13 19:28:25;;;;;;;21.05;12.95;;;9.40;86.70;;;;;;5093180;28;20048;-74
2022/03/13 19:30:51;;;;;;;20.90;14.68;;;9.40;86.40;;;;;;5092547;28;20036;-74
2022/03/13 19:33:19;;;;;;;21.70;15.20;;;9.30;86.60;;;;;;5094789;28;20035;-74
2022/03/13 19:35:45;;;;;;;18.13;12.73;;;9.30;86.90;;;;;;5093796;28;20039;-74
2022/03/13 19:38:18;;;;;;;19.27;13.27;;;9.20;87.10;;;;;;5091394;28;20059;-74
2022/03/13 19:40:44;;;;;;;16.67;12.77;;;9.10;87.40;;;;;;5092497;28;20036;-74
2022/03/13 19:43:09;;;;;;;16.75;12.02;;;9.10;87.70;;;;;;5079087;28;20047;-74
2022/03/13 19:45:37;;;;;;;20.95;12.18;;;9.00;87.70;;;;;;5087457;28;20097;-74
2022/03/13 19:48:03;;;;;;;20.58;12.50;;;8.90;87.60;;;;;;5100734;28;20089;-74
2022/03/13 19:50:30;;;;;;;16.95;12.80;;;8.90;87.40;;;;;;5114383;28;20525;-74
2022/03/13 19:52:59;;;;;;;21.13;14.13;;;8.90;87.20;;;;;;5090964;28;20499;-74
2022/03/13 19:55:25;;;;;;;20.20;14.65;;;8.90;87.30;;;;;;5073217;28;20114;-74
2022/03/13 19:57:51;;;;;;;17.13;12.63;;;8.90;87.30;;;;;;5112282;28;20077;-74
2022/03/13 20:00:20;;;;;;;18.92;13.45;;;8.90;87.20;;;;;;5109778;28;20036;-74
2022/03/13 20:02:47;;;;;;;16.92;12.65;;;8.90;86.80;;;;;;5108417;28;20047;-74
2022/03/13 20:05:12;;;;;;;17.40;13.32;;;8.90;87.50;;;;;;5114548;28;20052;-74
2022/03/13 20:07:40;;;;;;;20.42;13.07;;;8.80;88.50;;;;;;5095106;28;20039;-74
2022/03/13 20:10:07;;;;;;;21.15;15.93;;;8.70;88.80;;;;;;5114650;28;20090;-74
2022/03/13 20:12:34;;;;;;;19.08;12.88;;;8.70;88.60;;;;;;5108168;28;20048;-74
2022/03/13 20:15:02;;;;;;;21.40;13.55;;;8.70;88.80;;;;;;5076012;28;20052;-74
2022/03/13 20:17:28;;;;;;;17.83;13.20;;;8.60;88.20;;;;;;5093728;28;20044;-74
2022/03/13 20:19:53;;;;;;;19.30;12.65;;;8.70;88.10;;;;;;5095361;28;20501;-74
2022/03/13 20:22:19;;;;;;;18.45;11.75;;;8.70;87.70;;;;;;5095241;28;20043;-74
2022/03/13 20:24:45;;;;;;;18.83;13.35;;;8.60;87.10;;;;;;5113899;28;20048;-74
2022/03/13 20:27:11;;;;;;;16.48;12.20;;;8.70;87.10;;;;;;5112561;28;20031;-74
2022/03/13 20:29:37;;;;;;;16.50;11.38;;;8.70;87.40;;;;;;5114132;28;20162;-74
2022/03/13 20:32:03;;;;;;;16.90;12.02;;;8.70;86.40;;;;;;5113565;28;20110;-74
2022/03/13 20:34:30;;;;;;;16.33;11.50;;;8.70;86.20;;;;;;5094581;28;20043;-74
2022/03/13 20:36:56;;;;;;;16.30;11.38;;;8.70;86.00;;;;;;5113400;28;20119;-74
2022/03/13 20:39:23;;;;;;;14.45;11.35;;;8.80;85.60;;;;;;5094093;28;20461;-74
2022/03/13 20:41:50;;;;;;;15.45;11.05;;;8.80;85.40;;;;;;5112862;28;20118;-73
2022/03/13 20:44:17;;;;;;;14.35;10.43;;;8.90;85.40;;;;;;5113707;28;20093;-74
2022/03/13 20:46:44;;;;;;;20.05;11.73;;;8.90;84.70;;;;;;5113397;28;20087;-74
2022/03/13 20:49:15;;;;;;;18.30;11.32;;;9.00;84.40;;;;;;5112485;28;20134;-74
2022/03/13 20:51:46;;;;;;;16.20;10.63;;;9.00;84.00;;;;;;5095131;28;20129;-74
2022/03/13 20:54:13;;;;;;;18.00;11.88;;;9.10;83.50;;;;;;5113475;28;20097;-74
2022/03/13 20:56:39;;;;;;;15.35;9.93;;;9.10;83.50;;;;;;5094181;28;20383;-74
2022/03/13 20:59:17;;;;;;;14.48;10.38;;;9.20;82.60;;;;;;5092354;28;20448;-74
2022/03/13 21:01:44;;;;;;;13.88;10.38;;;9.20;81.80;;;;;;5091400;28;20055;-74
2022/03/13 21:04:10;;;;;;;27.90;11.35;;;9.20;82.00;;;;;;5112653;28;20040;-74
2022/03/13 21:06:42;;;;;;;17.48;11.00;;;9.30;81.80;;;;;;5113813;28;20036;-73
2022/03/13 21:09:13;;;;;;;13.98;10.63;;;9.30;81.20;;;;;;5094094;28;20048;-73
2022/03/13 21:11:40;;;;;;;15.18;11.00;;;9.30;80.70;;;;;;5112948;28;20051;-74
2022/03/13 21:14:10;;;;;;;15.00;10.68;;;9.30;81.00;;;;;;5078174;28;20050;-73
2022/03/13 21:16:43;;;;;;;14.05;9.77;;;9.20;81.20;;;;;;5094223;28;20044;-73
2022/03/13 21:19:09;;;;;;;16.92;10.02;;;9.30;80.80;;;;;;5077937;28;20100;-74
2022/03/13 21:21:35;;;;;;;17.50;11.50;;;9.30;80.30;;;;;;5113078;28;20043;-73
2022/03/13 21:24:01;;;;;;;12.70;9.98;;;9.30;80.10;;;;;;5093623;28;20063;-73
2022/03/13 21:26:27;;;;;;;14.98;9.43;;;9.30;80.10;;;;;;5113269;28;20039;-73
2022/03/13 21:28:53;;;;;;;12.88;10.00;;;9.30;79.80;;;;;;5113105;28;20036;-73
2022/03/13 21:31:19;;;;;;;12.48;9.93;;;9.30;79.20;;;;;;5112568;28;20089;-73
2022/03/13 21:33:45;;;;;;;13.18;9.90;;;9.40;79.00;;;;;;5113095;28;20063;-73
2022/03/13 21:36:11;;;;;;;14.02;10.40;;;9.40;78.80;;;;;;5116605;28;20067;-74
2022/03/13 21:38:36;;;;;;;14.18;9.55;;;9.40;78.50;;;;;;5116023;28;20031;-73
2022/03/13 21:41:03;;;;;;;13.95;10.48;;;9.40;78.20;;;;;;5077981;28;20036;-73
2022/03/13 21:43:28;;;;;;;16.60;10.98;;;9.40;78.30;;;;;;5111216;28;20043;-73
2022/03/13 21:45:54;;;;;;;15.40;10.55;;;9.50;78.60;;;;;;5081303;28;20122;-73
2022/03/13 21:48:21;;;;;;;13.50;9.50;;;9.50;78.40;;;;;;5098297;28;20063;-73
2022/03/13 21:50:47;;;;;;;15.82;10.30;;;9.40;78.40;;;;;;5116191;28;20047;-73
2022/03/13 21:53:13;;;;;;;13.13;10.15;;;9.40;78.30;;;;;;5098239;28;20049;-73
2022/03/13 21:55:38;;;;;;;14.20;10.63;;;9.40;78.50;;;;;;5116564;28;20082;-73
2022/03/13 21:58:04;;;;;;;16.15;10.50;;;9.40;78.50;;;;;;5114610;28;20035;-73
2022/03/13 22:00:30;;;;;;;13.85;9.60;;;9.40;78.90;;;;;;5116986;28;20522;-73
2022/03/13 22:02:55;;;;;;;17.23;10.15;;;9.40;78.40;;;;;;5098583;28;20043;-73
2022/03/13 22:05:23;;;;;;;16.00;9.27;;;9.40;78.20;;;;;;5097423;28;20452;-73
2022/03/13 22:07:48;;;;;;;14.38;9.90;;;9.40;78.10;;;;;;5095138;28;20052;-73
2022/03/13 22:10:19;;;;;;;14.60;10.23;;;9.40;78.10;;;;;;5098096;28;20100;-73
2022/03/13 22:12:46;;;;;;;14.90;10.70;;;9.40;78.20;;;;;;5115506;28;20043;-73
2022/03/13 22:15:14;;;;;;;14.45;10.10;;;9.40;78.20;;;;;;5115597;28;20398;-73
2022/03/13 22:17:40;;;;;;;16.70;10.10;;;9.40;78.20;;;;;;5094542;28;20463;-73
2022/03/13 22:20:07;;;;;;;13.38;9.75;;;9.40;78.30;;;;;;5113274;28;20168;-73
2022/03/13 22:22:33;;;;;;;14.13;10.60;;;9.40;78.60;;;;;;5098152;28;20406;-73
2022/03/13 22:24:59;;;;;;;14.50;10.63;;;9.40;78.80;;;;;;5115836;28;20050;-73
2022/03/13 22:27:24;;;;;;;15.68;10.85;;;9.40;78.90;;;;;;5115057;28;20118;-73
2022/03/13 22:29:50;;;;;;;16.75;10.85;;;9.40;79.20;;;;;;5097679;28;20045;-73
2022/03/13 22:32:16;;;;;;;17.48;10.77;;;9.40;79.60;;;;;;5097624;28;20092;-73
2022/03/13 22:34:43;;;;;;;17.00;11.07;;;9.40;80.10;;;;;;5093590;28;20052;-73
2022/03/13 22:37:09;;;;;;;16.83;9.77;;;9.40;80.40;;;;;;5095832;28;20076;-73
2022/03/13 22:39:36;;;;;;;13.40;10.02;;;9.40;80.10;;;;;;5091702;28;20063;-73
2022/03/13 22:42:02;;;;;;;13.57;10.82;;;9.40;80.00;;;;;;5114996;28;20452;-73
2022/03/13 22:44:28;;;;;;;15.68;10.98;;;9.40;79.80;;;;;;5096788;28;20375;-73
2022/03/13 22:46:54;;;;;;;38.17;12.32;;;9.40;79.50;;;;;;5097703;28;20054;-73
2022/03/13 22:49:19;;;;;;;17.17;12.07;;;9.50;79.40;;;;;;5114364;28;20126;-73
2022/03/13 22:51:46;;;;;;;16.52;11.60;;;9.50;79.40;;;;;;5115481;28;20101;-73
2022/03/13 22:54:14;;;;;;;15.70;11.57;;;9.50;79.60;;;;;;5114212;28;20123;-73
2022/03/13 22:56:48;;;;;;;19.40;11.63;;;9.50;79.70;;;;;;5115453;28;20036;-73
2022/03/13 22:59:14;;;;;;;17.55;11.77;;;9.50;79.60;;;;;;5114973;28;20047;-73
2022/03/13 23:01:40;;;;;;;15.32;11.70;;;9.50;79.50;;;;;;5096680;28;20040;-73
2022/03/13 23:04:06;;;;;;;20.13;11.80;;;9.60;79.50;;;;;;5103548;28;20047;-73
2022/03/13 23:06:32;;;;;;;16.65;11.30;;;9.60;79.50;;;;;;5096851;28;20162;-73
2022/03/13 23:08:57;;;;;;;15.35;11.98;;;9.60;79.40;;;;;;5106949;28;20039;-73
2022/03/13 23:11:23;;;;;;;18.90;13.20;;;9.60;79.50;;;;;;5060248;28;20040;-73
2022/03/13 23:13:52;;;;;;;16.52;11.82;;;9.60;79.40;;;;;;5087195;28;20039;-73
2022/03/13 23:16:18;;;;;;;19.55;11.60;;;9.70;79.30;;;;;;5092808;28;20040;-73
2022/03/13 23:18:44;;;;;;;14.80;11.68;;;9.70;79.50;;;;;;5093498;28;20048;-73
2022/03/13 23:21:12;;;;;;;21.40;12.63;;;9.70;79.40;;;;;;5105187;28;20109;-73
2022/03/13 23:23:39;;;;;;;15.80;11.43;;;9.70;79.50;;;;;;5092508;28;20086;-73
2022/03/13 23:26:05;;;;;;;17.88;12.70;;;9.70;79.60;;;;;;5086173;28;20474;-73
2022/03/13 23:28:34;;;;;;;22.27;12.15;;;9.70;79.80;;;;;;5096129;28;20047;-73
2022/03/13 23:31:01;;;;;;;15.75;11.77;;;9.70;80.00;;;;;;5095629;28;20047;-73
2022/03/13 23:33:30;;;;;;;17.83;11.57;;;9.60;80.00;;;;;;5114562;28;20050;-73
2022/03/13 23:36:04;;;;;;;17.05;12.40;;;9.60;80.40;;;;;;5096914;28;20087;-73
2022/03/13 23:38:31;;;;;;;17.20;12.75;;;9.60;80.50;;;;;;5113608;28;20040;-73
2022/03/13 23:41:03;;;;;;;16.10;12.43;;;9.50;80.80;;;;;;5114348;28;20032;-73
2022/03/13 23:43:30;;;;;;;16.60;12.50;;;9.60;80.90;;;;;;5113624;28;20048;-73
2022/03/13 23:45:55;;;;;;;16.50;11.38;;;9.60;81.20;;;;;;5096188;28;20078;-73
2022/03/13 23:48:21;;;;;;;19.25;13.07;;;9.60;81.30;;;;;;5113288;28;20105;-73
2022/03/13 23:50:47;;;;;;;17.10;12.07;;;9.50;81.30;;;;;;5113827;28;20106;-73
2022/03/13 23:53:12;;;;;;;21.10;13.15;;;9.50;81.50;;;;;;5096181;28;20104;-73
2022/03/13 23:55:38;;;;;;;21.73;11.60;;;9.50;82.00;;;;;;5096385;28;20050;-73
2022/03/13 23:58:04;;;;;;;17.25;12.88;;;9.50;82.40;;;;;;5112762;28;20043;-73
